createdAt,value
2017-07-19T00:00:36.662Z,18.90
2017-07-19T00:03:04.177Z,18.80
2017-07-19T00:05:31.714Z,18.70
2017-07-19T00:07:59.232Z,18.80
2017-07-19T00:10:27.538Z,18.80
2017-07-19T00:12:55.054Z,18.80
2017-07-19T00:15:22.570Z,18.70
2017-07-19T00:17:50.103Z,18.70
2017-07-19T00:20:17.618Z,18.70
2017-07-19T00:22:45.155Z,18.80
2017-07-19T00:25:12.675Z,18.70
2017-07-19T00:27:40.211Z,18.60
2017-07-19T00:30:07.725Z,18.50
2017-07-19T00:32:36.029Z,18.50
2017-07-19T00:35:03.555Z,18.50
2017-07-19T00:37:31.875Z,18.40
2017-07-19T00:39:59.408Z,18.30
2017-07-19T00:42:26.938Z,18.30
2017-07-19T00:44:54.486Z,18.30
2017-07-19T00:47:22.006Z,18.30
2017-07-19T00:49:49.545Z,18.30
2017-07-19T00:52:17.482Z,18.30
2017-07-19T00:54:45.043Z,18.40
2017-07-19T00:57:12.561Z,18.50
2017-07-19T00:59:40.097Z,18.40
2017-07-19T01:02:08.384Z,18.20
2017-07-19T01:04:35.926Z,18.20
2017-07-19T01:07:03.441Z,18.10
2017-07-19T01:09:30.965Z,18.10
2017-07-19T01:11:58.510Z,18.10
2017-07-19T01:14:26.042Z,18.10
2017-07-19T01:16:54.345Z,18.10
2017-07-19T01:19:21.867Z,18.10
2017-07-19T01:21:49.407Z,18.10
2017-07-19T01:24:16.929Z,18.10
2017-07-19T01:26:44.471Z,18.10
2017-07-19T01:29:12.763Z,18.20
2017-07-19T01:31:40.302Z,18.20
2017-07-19T01:34:07.822Z,18.20
2017-07-19T01:36:35.362Z,18.20
2017-07-19T01:39:02.883Z,18.00
2017-07-19T01:41:30.436Z,18.00
2017-07-19T01:43:57.957Z,18.00
2017-07-19T01:46:25.523Z,18.10
2017-07-19T01:48:53.070Z,18.20
2017-07-19T01:51:21.369Z,17.90
2017-07-19T01:53:48.920Z,17.90
2017-07-19T01:56:16.446Z,17.80
2017-07-19T01:58:43.987Z,17.80
2017-07-19T02:01:11.519Z,17.80
2017-07-19T02:03:39.071Z,17.90
2017-07-19T02:06:06.613Z,18.00
2017-07-19T02:08:34.153Z,17.90
2017-07-19T02:11:01.678Z,17.80
2017-07-19T02:13:29.201Z,17.70
2017-07-19T02:15:56.734Z,17.80
2017-07-19T02:18:25.022Z,17.90
2017-07-19T02:20:52.563Z,17.90
2017-07-19T02:23:20.854Z,17.70
2017-07-19T02:25:49.162Z,17.50
2017-07-19T02:28:16.686Z,17.50
2017-07-19T02:30:44.992Z,17.50
2017-07-19T02:33:12.508Z,17.50
2017-07-19T02:35:40.823Z,17.70
2017-07-19T02:38:08.351Z,17.60
2017-07-19T02:40:35.865Z,17.70
2017-07-19T02:43:03.402Z,17.70
2017-07-19T02:45:30.923Z,17.70
2017-07-19T02:47:58.463Z,17.60
2017-07-19T02:50:26.751Z,17.60
2017-07-19T02:52:55.055Z,17.60
2017-07-19T02:55:22.567Z,17.50
2017-07-19T02:57:50.101Z,17.60
2017-07-19T03:00:17.620Z,17.60
2017-07-19T03:02:45.167Z,17.60
2017-07-19T03:05:12.686Z,17.60
2017-07-19T03:07:40.206Z,17.60
2017-07-19T03:10:08.509Z,17.50
2017-07-19T03:12:36.033Z,17.50
2017-07-19T03:15:04.338Z,17.50
2017-07-19T03:17:31.854Z,17.50
2017-07-19T03:19:59.390Z,17.50
2017-07-19T03:22:48.743Z,17.50
2017-07-19T03:25:16.286Z,17.50
2017-07-19T03:27:44.570Z,17.40
2017-07-19T03:30:12.110Z,17.40
2017-07-19T03:32:40.393Z,17.40
2017-07-19T03:35:08.711Z,17.40
2017-07-19T03:37:36.234Z,17.40
2017-07-19T03:40:03.763Z,17.30
2017-07-19T03:42:31.308Z,17.40
2017-07-19T03:44:58.822Z,17.40
2017-07-19T03:47:26.363Z,17.50
2017-07-19T03:49:53.886Z,17.50
2017-07-19T03:52:21.435Z,17.60
2017-07-19T03:54:48.959Z,17.60
2017-07-19T03:57:16.497Z,17.60
2017-07-19T03:59:44.013Z,17.70
2017-07-19T04:02:12.320Z,17.80
2017-07-19T04:04:39.835Z,17.80
2017-07-19T04:07:08.120Z,18.00
2017-07-19T04:09:35.665Z,18.00
2017-07-19T04:12:03.953Z,18.10
2017-07-19T04:14:31.498Z,18.10
2017-07-19T04:16:59.778Z,18.20
2017-07-19T04:19:27.315Z,18.20
2017-07-19T04:21:54.848Z,18.20
2017-07-19T04:24:22.399Z,18.20
2017-07-19T04:26:49.927Z,18.30
2017-07-19T04:29:17.459Z,18.40
2017-07-19T04:31:44.974Z,18.60
2017-07-19T04:34:12.494Z,18.70
2017-07-19T04:36:40.034Z,18.70
2017-07-19T04:39:08.334Z,18.70
2017-07-19T04:41:35.875Z,18.70
2017-07-19T04:44:03.411Z,18.60
2017-07-19T04:46:31.714Z,18.90
2017-07-19T04:49:00.006Z,19.30
2017-07-19T04:51:27.551Z,19.30
2017-07-19T04:53:55.092Z,19.80
2017-07-19T04:56:22.643Z,20.20
2017-07-19T04:58:50.163Z,20.70
2017-07-19T05:01:17.698Z,21.20
2017-07-19T05:03:45.222Z,21.60
2017-07-19T05:06:13.507Z,22.60
2017-07-19T05:08:41.055Z,22.50
2017-07-19T05:11:09.346Z,23.40
2017-07-19T05:13:36.886Z,23.30
2017-07-19T05:16:05.178Z,24.20
2017-07-19T05:18:32.713Z,24.20
2017-07-19T05:21:00.239Z,24.70
2017-07-19T05:23:27.774Z,25.10
2017-07-19T05:25:55.293Z,25.40
2017-07-19T05:28:22.831Z,25.80
2017-07-19T05:30:50.370Z,26.50
2017-07-19T05:33:17.888Z,27.10
2017-07-19T05:35:45.429Z,27.50
2017-07-19T05:38:12.953Z,28.00
2017-07-19T05:40:40.489Z,28.10
2017-07-19T05:43:08.002Z,28.20
2017-07-19T05:45:35.552Z,28.30
2017-07-19T05:48:03.078Z,28.40
2017-07-19T05:50:30.615Z,28.80
2017-07-19T05:52:58.157Z,29.10
2017-07-19T05:55:25.683Z,29.10
2017-07-19T05:57:53.223Z,29.00
2017-07-19T06:00:21.515Z,29.10
2017-07-19T06:02:49.062Z,29.10
2017-07-19T06:05:16.588Z,29.30
2017-07-19T06:07:44.149Z,29.30
2017-07-19T06:10:11.675Z,29.10
2017-07-19T06:12:39.205Z,29.00
2017-07-19T06:15:06.742Z,28.80
2017-07-19T06:17:34.269Z,28.90
2017-07-19T06:20:01.816Z,29.00
2017-07-19T06:22:29.334Z,29.20
2017-07-19T06:24:56.881Z,29.40
2017-07-19T06:27:24.394Z,29.50
2017-07-19T06:29:52.702Z,29.60
2017-07-19T06:32:20.218Z,29.60
2017-07-19T06:34:47.829Z,29.60
2017-07-19T06:37:16.125Z,29.90
2017-07-19T06:39:43.653Z,29.80
2017-07-19T06:42:11.955Z,29.80
2017-07-19T06:44:39.469Z,29.80
2017-07-19T06:47:07.009Z,30.10
2017-07-19T06:49:34.564Z,30.60
2017-07-19T06:52:02.109Z,30.90
2017-07-19T06:54:29.626Z,30.70
2017-07-19T06:56:57.930Z,30.70
2017-07-19T06:59:25.453Z,30.70
2017-07-19T07:01:52.994Z,30.60
2017-07-19T07:04:21.339Z,30.30
2017-07-19T07:06:48.850Z,29.70
2017-07-19T07:09:16.394Z,29.50
2017-07-19T07:11:43.922Z,29.90
2017-07-19T07:14:11.460Z,30.20
2017-07-19T07:16:38.987Z,30.30
2017-07-19T07:19:06.526Z,30.60
2017-07-19T07:21:34.051Z,30.90
2017-07-19T07:24:01.591Z,30.80
2017-07-19T07:26:29.111Z,30.90
2017-07-19T07:28:56.659Z,31.10
2017-07-19T07:31:24.193Z,31.10
2017-07-19T07:33:52.478Z,30.60
2017-07-19T07:36:20.798Z,30.80
2017-07-19T07:38:48.322Z,30.80
2017-07-19T07:41:16.634Z,30.80
2017-07-19T07:43:44.154Z,30.80
2017-07-19T07:46:12.458Z,30.70
2017-07-19T07:48:39.979Z,30.60
2017-07-19T07:51:07.517Z,30.90
2017-07-19T07:53:35.035Z,31.20
2017-07-19T07:56:02.578Z,31.00
2017-07-19T07:58:30.102Z,31.10
2017-07-19T08:00:58.398Z,31.50
2017-07-19T08:03:25.936Z,31.40
2017-07-19T08:05:53.455Z,31.50
2017-07-19T08:08:20.996Z,31.80
2017-07-19T08:10:49.283Z,32.00
2017-07-19T08:13:16.824Z,32.00
2017-07-19T08:15:45.118Z,31.40
2017-07-19T08:18:12.668Z,31.30
2017-07-19T08:20:40.210Z,31.40
2017-07-19T08:23:07.742Z,32.00
2017-07-19T08:25:35.266Z,32.30
2017-07-19T08:28:02.802Z,32.60
2017-07-19T08:30:31.106Z,33.20
2017-07-19T08:32:58.624Z,33.20
2017-07-19T08:35:26.162Z,33.20
2017-07-19T08:37:53.682Z,33.00
2017-07-19T08:40:21.231Z,33.00
2017-07-19T08:42:48.756Z,32.90
2017-07-19T08:45:16.295Z,33.00
2017-07-19T08:47:44.582Z,33.60
2017-07-19T08:50:12.117Z,33.60
2017-07-19T08:52:39.632Z,33.50
2017-07-19T08:55:07.158Z,33.20
2017-07-19T08:57:34.693Z,32.80
2017-07-19T09:00:02.224Z,32.70
2017-07-19T09:02:29.762Z,32.90
2017-07-19T09:04:57.282Z,33.00
2017-07-19T09:07:24.830Z,32.90
2017-07-19T09:09:52.358Z,33.10
2017-07-19T09:12:19.907Z,33.10
2017-07-19T09:14:47.423Z,33.10
2017-07-19T09:17:14.946Z,33.40
2017-07-19T09:19:43.263Z,33.60
2017-07-19T09:22:10.784Z,33.60
2017-07-19T09:24:38.321Z,33.80
2017-07-19T09:27:05.842Z,34.40
2017-07-19T09:29:33.388Z,34.90
2017-07-19T09:32:00.908Z,35.20
2017-07-19T09:34:28.455Z,35.60
2017-07-19T09:36:55.975Z,36.00
2017-07-19T09:39:23.522Z,36.00
2017-07-19T09:41:51.047Z,36.00
2017-07-19T09:44:19.335Z,36.30
2017-07-19T09:46:46.870Z,36.30
2017-07-19T09:49:14.387Z,36.30
2017-07-19T09:51:41.927Z,36.40
2017-07-19T09:54:09.453Z,36.30
2017-07-19T09:56:36.990Z,36.00
2017-07-19T09:59:04.511Z,35.50
2017-07-19T10:01:32.055Z,34.80
2017-07-19T10:03:59.579Z,34.60
2017-07-19T10:06:27.111Z,34.70
2017-07-19T10:08:54.636Z,34.70
2017-07-19T10:11:22.186Z,34.60
2017-07-19T10:13:49.709Z,34.80
2017-07-19T10:16:17.242Z,35.10
2017-07-19T10:18:44.764Z,35.20
2017-07-19T10:21:12.312Z,35.40
2017-07-19T10:23:39.855Z,35.40
2017-07-19T10:26:07.375Z,35.60
2017-07-19T10:28:34.914Z,35.60
2017-07-19T10:31:02.430Z,35.70
2017-07-19T10:33:29.974Z,35.60
2017-07-19T10:35:57.490Z,35.30
2017-07-19T10:38:25.032Z,35.20
2017-07-19T10:40:52.551Z,35.10
2017-07-19T10:43:20.115Z,35.30
2017-07-19T10:45:48.415Z,35.60
2017-07-19T10:48:15.939Z,35.60
2017-07-19T10:50:44.244Z,35.50
2017-07-19T10:53:11.759Z,35.50
2017-07-19T10:55:40.067Z,35.20
2017-07-19T10:58:07.582Z,35.20
2017-07-19T11:00:35.119Z,35.00
2017-07-19T11:03:02.635Z,35.00
2017-07-19T11:05:30.183Z,35.00
2017-07-19T11:07:58.465Z,35.20
2017-07-19T11:10:26.765Z,35.20
2017-07-19T11:12:54.279Z,35.20
2017-07-19T11:15:21.822Z,35.10
2017-07-19T11:17:49.339Z,34.80
2017-07-19T11:20:16.863Z,34.70
2017-07-19T11:22:44.409Z,34.90
2017-07-19T11:25:11.922Z,34.90
2017-07-19T11:27:39.464Z,35.00
2017-07-19T11:30:07.005Z,35.00
2017-07-19T11:32:34.542Z,35.10
2017-07-19T11:35:02.063Z,35.20
2017-07-19T11:37:29.608Z,35.40
2017-07-19T11:39:57.139Z,35.40
2017-07-19T11:42:25.458Z,35.70
2017-07-19T11:44:52.977Z,35.70
2017-07-19T11:47:21.262Z,35.90
2017-07-19T11:49:48.802Z,35.90
2017-07-19T11:52:16.322Z,35.90
2017-07-19T11:54:43.870Z,35.70
2017-07-19T11:57:11.398Z,35.50
2017-07-19T11:59:39.322Z,35.30
2017-07-19T12:02:07.614Z,35.30
2017-07-19T12:04:35.151Z,35.30
2017-07-19T12:07:02.665Z,35.60
2017-07-19T12:09:30.204Z,35.70
2017-07-19T12:11:58.483Z,35.70
2017-07-19T12:14:26.796Z,35.80
2017-07-19T12:16:54.318Z,35.80
2017-07-19T12:19:22.627Z,35.80
2017-07-19T12:21:50.152Z,35.80
2017-07-19T12:24:17.699Z,35.90
2017-07-19T12:26:45.239Z,36.10
2017-07-19T12:29:12.756Z,36.00
2017-07-19T12:31:40.307Z,35.70
2017-07-19T12:34:07.831Z,35.60
2017-07-19T12:36:36.130Z,35.60
2017-07-19T12:39:03.651Z,35.60
2017-07-19T12:41:31.190Z,35.70
2017-07-19T12:43:58.707Z,35.70
2017-07-19T12:46:26.246Z,35.90
2017-07-19T12:48:53.767Z,36.00
2017-07-19T12:51:21.324Z,35.90
2017-07-19T12:53:48.846Z,35.90
2017-07-19T12:56:16.375Z,35.80
2017-07-19T12:58:43.915Z,35.70
2017-07-19T13:01:11.442Z,35.80
2017-07-19T13:03:38.977Z,36.20
2017-07-19T13:06:06.495Z,36.50
2017-07-19T13:08:34.034Z,36.70
2017-07-19T13:11:02.323Z,36.40
2017-07-19T13:13:30.633Z,36.10
2017-07-19T13:15:58.919Z,35.90
2017-07-19T13:18:26.439Z,35.80
2017-07-19T13:20:54.758Z,35.90
2017-07-19T13:23:22.280Z,35.80
2017-07-19T13:25:49.813Z,36.10
2017-07-19T13:28:17.331Z,36.10
2017-07-19T13:30:44.877Z,36.10
2017-07-19T13:33:12.396Z,36.00
2017-07-19T13:35:39.939Z,35.80
2017-07-19T13:38:07.455Z,35.60
2017-07-19T13:40:35.012Z,35.50
2017-07-19T13:43:02.532Z,35.40
2017-07-19T13:45:30.052Z,35.30
2017-07-19T13:47:58.350Z,35.30
2017-07-19T13:50:25.872Z,35.20
2017-07-19T13:52:53.415Z,35.40
2017-07-19T13:55:21.705Z,35.70
2017-07-19T13:57:49.253Z,35.70
2017-07-19T14:00:16.778Z,35.90
2017-07-19T14:02:45.082Z,35.60
2017-07-19T14:05:12.602Z,35.60
2017-07-19T14:07:40.142Z,35.40
2017-07-19T14:10:07.663Z,35.40
2017-07-19T14:12:35.191Z,35.30
2017-07-19T14:15:02.730Z,35.20
2017-07-19T14:17:30.247Z,35.10
2017-07-19T14:19:57.786Z,35.20
2017-07-19T14:22:25.309Z,35.30
2017-07-19T14:24:52.858Z,35.50
2017-07-19T14:27:20.382Z,35.50
2017-07-19T14:29:47.918Z,35.40
2017-07-19T14:32:15.430Z,35.50
2017-07-19T14:34:42.970Z,35.40
2017-07-19T14:37:10.494Z,35.30
2017-07-19T14:39:38.050Z,35.20
2017-07-19T14:42:05.574Z,35.20
2017-07-19T14:44:33.098Z,35.10
2017-07-19T14:47:00.642Z,35.10
2017-07-19T14:49:28.160Z,35.20
2017-07-19T14:51:55.710Z,35.30
2017-07-19T14:54:23.226Z,35.10
2017-07-19T14:56:50.761Z,34.70
2017-07-19T14:59:18.293Z,34.60
2017-07-19T15:01:45.838Z,34.70
2017-07-19T15:04:13.366Z,34.80
2017-07-19T15:06:40.902Z,34.80
2017-07-19T15:09:08.418Z,34.90
2017-07-19T15:11:35.958Z,34.70
2017-07-19T15:14:03.486Z,34.70
2017-07-19T15:16:31.050Z,34.70
2017-07-19T15:18:58.575Z,34.80
2017-07-19T15:21:26.098Z,34.90
2017-07-19T15:23:53.641Z,34.90
2017-07-19T15:26:21.171Z,34.60
2017-07-19T15:28:49.470Z,34.30
2017-07-19T15:31:17.000Z,34.30
2017-07-19T15:33:45.310Z,34.20
2017-07-19T15:36:12.830Z,34.20
2017-07-19T15:38:41.133Z,34.40
2017-07-19T15:41:08.657Z,34.30
2017-07-19T15:43:36.192Z,34.30
2017-07-19T15:46:03.712Z,34.10
2017-07-19T15:48:32.058Z,34.00
2017-07-19T15:50:59.579Z,33.90
2017-07-19T15:53:27.122Z,33.80
2017-07-19T15:55:54.666Z,33.70
2017-07-19T15:58:22.187Z,33.70
2017-07-19T16:00:49.727Z,33.80
2017-07-19T16:03:17.250Z,33.80
2017-07-19T16:05:44.787Z,33.70
2017-07-19T16:08:13.072Z,33.60
2017-07-19T16:10:40.614Z,33.60
2017-07-19T16:13:08.143Z,33.70
2017-07-19T16:15:35.695Z,33.70
2017-07-19T16:18:03.214Z,33.70
2017-07-19T16:20:30.817Z,33.60
2017-07-19T16:22:58.330Z,33.50
2017-07-19T16:25:25.859Z,33.40
2017-07-19T16:27:54.169Z,33.20
2017-07-19T16:30:21.682Z,33.20
2017-07-19T16:32:49.994Z,33.10
2017-07-19T16:35:17.516Z,33.00
2017-07-19T16:37:45.070Z,33.00
2017-07-19T16:40:12.590Z,32.90
2017-07-19T16:42:40.891Z,32.50
2017-07-19T16:45:08.412Z,32.60
2017-07-19T16:47:36.713Z,32.40
2017-07-19T16:50:04.237Z,32.40
2017-07-19T16:52:31.782Z,32.30
2017-07-19T16:54:59.304Z,32.10
2017-07-19T16:57:26.822Z,31.90
2017-07-19T16:59:54.354Z,31.70
2017-07-19T17:02:21.877Z,31.40
2017-07-19T17:04:49.422Z,31.20
2017-07-19T17:07:16.945Z,31.00
2017-07-19T17:09:44.483Z,30.80
2017-07-19T17:12:12.000Z,30.70
2017-07-19T17:14:39.542Z,30.50
2017-07-19T17:17:07.068Z,30.40
2017-07-19T17:19:34.618Z,30.30
2017-07-19T17:22:02.138Z,30.10
2017-07-19T17:24:29.660Z,29.90
2017-07-19T17:26:57.966Z,29.70
2017-07-19T17:29:25.492Z,29.70
2017-07-19T17:31:53.053Z,29.60
2017-07-19T17:34:20.584Z,29.50
2017-07-19T17:36:48.122Z,29.40
2017-07-19T17:39:16.406Z,29.20
2017-07-19T17:41:43.948Z,29.20
2017-07-19T17:44:11.469Z,29.10
2017-07-19T17:46:39.780Z,29.10
2017-07-19T17:49:07.300Z,29.10
2017-07-19T17:51:34.844Z,29.10
2017-07-19T17:54:03.136Z,29.00
2017-07-19T17:56:30.650Z,29.00
2017-07-19T17:58:58.958Z,28.70
2017-07-19T18:01:26.475Z,28.70
2017-07-19T18:03:54.016Z,28.50
2017-07-19T18:06:21.544Z,28.30
2017-07-19T18:08:49.103Z,28.20
2017-07-19T18:11:17.392Z,28.10
2017-07-19T18:13:44.931Z,28.10
2017-07-19T18:16:13.220Z,28.00
2017-07-19T18:18:40.758Z,28.00
2017-07-19T18:21:08.291Z,27.90
2017-07-19T18:23:35.850Z,27.90
2017-07-19T18:26:03.376Z,27.80
2017-07-19T18:28:30.898Z,27.70
2017-07-19T18:30:58.446Z,27.70
2017-07-19T18:33:25.969Z,27.60
2017-07-19T18:35:53.513Z,27.60
2017-07-19T18:38:21.036Z,27.40
2017-07-19T18:40:48.581Z,27.20
2017-07-19T18:43:16.113Z,27.20
2017-07-19T18:45:43.655Z,27.10
2017-07-19T18:48:11.184Z,27.00
2017-07-19T18:50:38.727Z,27.00
2017-07-19T18:53:06.246Z,27.00
2017-07-19T18:55:33.792Z,27.00
2017-07-19T18:58:01.322Z,27.00
2017-07-19T19:00:28.847Z,27.00
2017-07-19T19:02:56.397Z,27.00
2017-07-19T19:05:23.913Z,26.80
2017-07-19T19:07:51.460Z,26.70
2017-07-19T19:10:18.974Z,26.60
2017-07-19T19:12:46.525Z,26.40
2017-07-19T19:15:14.054Z,26.30
2017-07-19T19:17:41.596Z,26.20
2017-07-19T19:20:09.123Z,26.30
2017-07-19T19:22:36.670Z,26.10
2017-07-19T19:25:04.193Z,25.80
2017-07-19T19:27:31.735Z,25.70
2017-07-19T19:29:59.268Z,25.70
2017-07-19T19:32:27.579Z,25.50
2017-07-19T19:34:55.107Z,25.50
2017-07-19T19:37:23.393Z,25.60
2017-07-19T19:39:50.933Z,25.50
2017-07-19T19:42:18.455Z,25.50
2017-07-19T19:44:46.101Z,25.20
2017-07-19T19:47:13.631Z,24.80
2017-07-19T19:49:41.250Z,24.20
2017-07-19T19:52:08.775Z,23.80
2017-07-19T19:54:36.316Z,23.50
2017-07-19T19:57:04.607Z,23.10
2017-07-19T19:59:32.145Z,23.10
2017-07-19T20:01:59.667Z,22.90
2017-07-19T20:04:27.975Z,22.60
2017-07-19T20:06:55.495Z,22.60
2017-07-19T20:09:23.793Z,22.40
2017-07-19T20:11:51.340Z,22.30
2017-07-19T20:14:18.857Z,22.20
2017-07-19T20:16:47.165Z,22.10
2017-07-19T20:19:14.682Z,22.10
2017-07-19T20:21:42.262Z,22.20
2017-07-19T20:24:09.782Z,22.20
2017-07-19T20:26:37.318Z,22.20
2017-07-19T20:29:05.609Z,22.20
2017-07-19T20:31:33.142Z,22.20
2017-07-19T20:34:00.662Z,22.30
2017-07-19T20:36:28.214Z,22.30
2017-07-19T20:38:55.733Z,22.20
2017-07-19T20:41:24.015Z,22.20
2017-07-19T20:43:51.560Z,22.10
2017-07-19T20:46:19.088Z,22.20
2017-07-19T20:48:46.639Z,22.20
2017-07-19T20:51:14.927Z,22.00
2017-07-19T20:53:42.454Z,21.90
2017-07-19T20:56:09.996Z,21.80
2017-07-19T20:58:37.525Z,21.70
2017-07-19T21:01:05.075Z,21.60
2017-07-19T21:03:32.599Z,21.60
2017-07-19T21:06:00.129Z,21.50
2017-07-19T21:08:27.691Z,21.50
2017-07-19T21:10:55.569Z,21.60
2017-07-19T21:13:23.153Z,21.70
2017-07-19T21:15:50.717Z,21.70
2017-07-19T21:18:18.309Z,21.60
2017-07-19T21:20:46.646Z,21.60
2017-07-19T21:23:14.208Z,21.60
2017-07-19T21:25:41.793Z,21.60
2017-07-19T21:28:09.358Z,21.50
2017-07-19T21:30:36.935Z,21.00
2017-07-19T21:33:05.751Z,19.10
2017-07-19T21:35:33.367Z,19.00
2017-07-19T21:38:00.941Z,18.60
2017-07-19T21:40:28.505Z,18.60
2017-07-19T21:42:56.088Z,18.80
2017-07-19T21:45:23.656Z,18.90
2017-07-19T21:47:51.237Z,18.90
2017-07-19T21:50:18.801Z,18.70
2017-07-19T21:52:46.397Z,18.80
2017-07-19T21:55:13.976Z,18.60
2017-07-19T21:57:42.453Z,18.30
2017-07-19T22:00:10.044Z,18.10
2017-07-19T22:02:38.370Z,18.20
2017-07-19T22:05:05.952Z,18.20
2017-07-19T22:07:33.513Z,18.30
2017-07-19T22:10:01.101Z,18.40
2017-07-19T22:12:29.425Z,18.50
2017-07-19T22:14:56.988Z,18.40
2017-07-19T22:17:24.579Z,18.50
2017-07-19T22:19:52.151Z,18.40
2017-07-19T22:22:19.728Z,18.20
2017-07-19T22:24:47.297Z,17.90
2017-07-19T22:27:14.893Z,17.70
2017-07-19T22:29:42.454Z,17.70
2017-07-19T22:32:10.022Z,17.80
2017-07-19T22:34:37.613Z,17.80
2017-07-19T22:37:05.173Z,18.00
2017-07-19T22:39:32.777Z,18.10
2017-07-19T22:42:00.341Z,18.20
2017-07-19T22:44:27.917Z,18.30
2017-07-19T22:46:55.501Z,18.40
2017-07-19T22:49:23.063Z,18.50
2017-07-19T22:51:50.664Z,18.60
2017-07-19T22:54:18.223Z,18.50
2017-07-19T22:56:45.788Z,18.50
2017-07-19T22:59:13.364Z,18.60
2017-07-19T23:01:40.925Z,18.60
2017-07-19T23:04:08.524Z,18.60
2017-07-19T23:06:36.858Z,18.50
2017-07-19T23:09:04.424Z,18.50
2017-07-19T23:11:32.012Z,18.60
2017-07-19T23:14:00.340Z,18.60
2017-07-19T23:16:27.935Z,18.60
2017-07-19T23:18:55.501Z,18.60
2017-07-19T23:21:23.069Z,18.70
2017-07-19T23:23:50.660Z,18.80
2017-07-19T23:26:18.226Z,18.90
2017-07-19T23:28:45.819Z,19.00
2017-07-19T23:31:13.380Z,19.00
2017-07-19T23:33:40.936Z,18.90
2017-07-19T23:36:08.517Z,19.00
2017-07-19T23:38:36.080Z,19.00
2017-07-19T23:41:03.679Z,18.90
2017-07-19T23:43:32.004Z,18.90
2017-07-19T23:45:59.565Z,18.90
2017-07-19T23:48:27.165Z,18.80
2017-07-19T23:50:54.731Z,18.80
2017-07-19T23:53:23.083Z,18.60
2017-07-19T23:55:50.647Z,18.60
2017-07-19T23:58:18.209Z,18.60
